createdAt,value
2023-04-24T00:00:06.406Z,99786.09
2023-04-24T00:02:35.700Z,99780.00
2023-04-24T00:05:03.982Z,99784.56
2023-04-24T00:07:31.825Z,99783.69
2023-04-24T00:09:59.808Z,99781.09
2023-04-24T00:12:28.226Z,99787.38
2023-04-24T00:14:55.778Z,99791.97
2023-04-24T00:17:23.444Z,99792.03
2023-04-24T00:19:59.129Z,99790.31
2023-04-24T00:22:26.874Z,99793.97
2023-04-24T00:24:54.578Z,99792.22
2023-04-24T00:27:22.232Z,99794.00
2023-04-24T00:29:49.983Z,99795.84
2023-04-24T00:32:18.975Z,99803.97
2023-04-24T00:34:46.851Z,99796.00
2023-04-24T00:37:16.088Z,99800.50
2023-04-24T00:39:43.996Z,99797.88
2023-04-24T00:42:12.269Z,99796.19
2023-04-24T00:44:40.526Z,99797.97
2023-04-24T00:47:08.200Z,99793.56
2023-04-24T00:49:35.843Z,99795.47
2023-04-24T00:52:03.496Z,99798.16
2023-04-24T00:54:32.458Z,99795.63
2023-04-24T00:57:00.157Z,99794.69
2023-04-24T00:59:27.815Z,99796.56
2023-04-24T01:01:55.882Z,99797.50
2023-04-24T01:04:23.932Z,99802.09
2023-04-24T01:06:53.519Z,99808.38
2023-04-24T01:09:22.456Z,99813.72
2023-04-24T01:11:52.149Z,99812.00
2023-04-24T01:14:19.782Z,99803.19
2023-04-24T01:16:47.572Z,99811.22
2023-04-24T01:19:17.989Z,99809.47
2023-04-24T01:21:46.423Z,99815.75
2023-04-24T01:24:15.782Z,99809.66
2023-04-24T01:26:43.463Z,99812.34
2023-04-24T01:29:11.433Z,99814.19
2023-04-24T01:31:39.086Z,99815.91
2023-04-24T01:34:07.468Z,99818.63
2023-04-24T01:36:37.137Z,99823.13
2023-04-24T01:39:05.157Z,99816.94
2023-04-24T01:41:34.751Z,99820.56
2023-04-24T01:44:02.582Z,99826.84
2023-04-24T01:46:30.447Z,99822.44
2023-04-24T01:48:58.713Z,99826.94
2023-04-24T01:51:26.284Z,99822.53
2023-04-24T01:53:54.222Z,99829.66
2023-04-24T01:56:22.218Z,99834.16
2023-04-24T01:58:52.494Z,99837.75
2023-04-24T02:01:21.113Z,99838.69
2023-04-24T02:03:49.009Z,99849.41
2023-04-24T02:06:16.775Z,99845.00
2023-04-24T02:08:44.517Z,99843.25
2023-04-24T02:11:12.170Z,99844.22
2023-04-24T02:13:39.773Z,99838.94
2023-04-24T02:16:08.879Z,99848.78
2023-04-24T02:18:36.480Z,99853.25
2023-04-24T02:21:04.183Z,99853.34
2023-04-24T02:23:31.785Z,99850.66
2023-04-24T02:25:59.384Z,99848.94
2023-04-24T02:28:27.025Z,99853.41
2023-04-24T02:30:54.716Z,99863.22
2023-04-24T02:33:23.662Z,99859.78
2023-04-24T02:35:51.276Z,99858.91
2023-04-24T02:38:18.968Z,99856.22
2023-04-24T02:40:46.635Z,99863.41
2023-04-24T02:43:14.245Z,99860.78
2023-04-24T02:45:41.921Z,99865.28
2023-04-24T02:48:09.584Z,99862.69
2023-04-24T02:50:38.602Z,99873.38
2023-04-24T02:53:06.421Z,99868.09
2023-04-24T02:55:34.226Z,99865.41
2023-04-24T02:58:01.864Z,99867.25
2023-04-24T03:00:29.528Z,99871.72
2023-04-24T03:02:57.321Z,99872.66
2023-04-24T03:05:25.027Z,99876.28
2023-04-24T03:07:54.264Z,99876.28
2023-04-24T03:10:23.511Z,99881.69
2023-04-24T03:12:51.398Z,99884.34
2023-04-24T03:15:19.000Z,99883.50
2023-04-24T03:17:46.694Z,99876.41
2023-04-24T03:20:14.544Z,99880.03
2023-04-24T03:22:42.186Z,99878.28
2023-04-24T03:25:11.766Z,99888.97
2023-04-24T03:27:40.280Z,99881.06
2023-04-24T03:30:09.873Z,99889.94
2023-04-24T03:32:37.556Z,99890.00
2023-04-24T03:35:05.594Z,99888.22
2023-04-24T03:37:33.227Z,99887.41
2023-04-24T03:40:00.815Z,99887.41
2023-04-24T03:42:29.761Z,99884.75
2023-04-24T03:44:57.535Z,99885.69
2023-04-24T03:47:25.269Z,99892.75
2023-04-24T03:49:53.256Z,99891.09
2023-04-24T03:52:20.864Z,99888.44
2023-04-24T03:54:48.505Z,99890.22
2023-04-24T03:57:16.151Z,99889.47
2023-04-24T03:59:45.231Z,99893.88
2023-04-24T04:02:13.033Z,99898.41
2023-04-24T04:04:40.806Z,99898.41
2023-04-24T04:07:08.820Z,99902.88
2023-04-24T04:09:36.445Z,99908.31
2023-04-24T04:12:04.127Z,99905.63
2023-04-24T04:14:31.789Z,99907.44
2023-04-24T04:17:00.712Z,99914.56
2023-04-24T04:19:28.501Z,99915.50
2023-04-24T04:21:57.212Z,99914.66
2023-04-24T04:24:25.017Z,99921.78
2023-04-24T04:26:53.159Z,99925.44
2023-04-24T04:29:20.922Z,99926.41
2023-04-24T04:31:48.560Z,99932.66
2023-04-24T04:34:17.536Z,99943.34
2023-04-24T04:36:45.319Z,99946.94
2023-04-24T04:39:15.316Z,99950.53
2023-04-24T04:41:43.077Z,99947.06
2023-04-24T04:44:10.867Z,99963.97
2023-04-24T04:46:39.512Z,99969.41
2023-04-24T04:49:07.240Z,99978.28
2023-04-24T04:51:36.278Z,99983.69
2023-04-24T04:54:04.228Z,99991.72
2023-04-24T04:56:32.004Z,100002.53
2023-04-24T04:59:00.310Z,100007.88
2023-04-24T05:01:28.478Z,100006.13
2023-04-24T05:03:56.462Z,100014.22
2023-04-24T05:06:24.678Z,100010.69
2023-04-24T05:08:57.939Z,100024.06
2023-04-24T05:11:25.538Z,100022.31
2023-04-24T05:13:53.126Z,100031.25
2023-04-24T05:16:20.823Z,100034.88
2023-04-24T05:18:48.452Z,100033.97
2023-04-24T05:21:16.048Z,100047.41
2023-04-24T05:23:43.646Z,100050.00
2023-04-24T05:26:12.625Z,100049.16
2023-04-24T05:28:40.286Z,100058.09
2023-04-24T05:31:07.875Z,100061.69
2023-04-24T05:33:35.505Z,100067.91
2023-04-24T05:36:03.162Z,100072.38
2023-04-24T05:38:30.895Z,100080.41
2023-04-24T05:40:58.507Z,100087.53
2023-04-24T05:43:27.588Z,100084.88
2023-04-24T05:45:56.297Z,100102.69
2023-04-24T05:48:24.368Z,100099.25
2023-04-24T05:50:53.360Z,100109.03
2023-04-24T05:53:21.114Z,100111.78
2023-04-24T05:55:49.550Z,100112.72
2023-04-24T05:58:17.270Z,100115.47
2023-04-24T06:00:47.693Z,100119.00
2023-04-24T06:03:16.685Z,100120.88
2023-04-24T06:05:44.627Z,100126.22
2023-04-24T06:08:12.436Z,100132.50
2023-04-24T06:10:40.277Z,100132.50
2023-04-24T06:13:07.923Z,100145.84
2023-04-24T06:15:35.870Z,100149.44
2023-04-24T06:18:05.110Z,100156.56
2023-04-24T06:20:32.865Z,100166.31
2023-04-24T06:23:00.442Z,100167.22
2023-04-24T06:25:28.630Z,100173.47
2023-04-24T06:27:56.963Z,100177.88
2023-04-24T06:30:25.048Z,100185.00
2023-04-24T06:32:52.954Z,100189.50
2023-04-24T06:35:22.035Z,100193.94
2023-04-24T06:37:49.806Z,100196.69
2023-04-24T06:40:19.492Z,100204.78
2023-04-24T06:42:47.156Z,100205.63
2023-04-24T06:45:14.781Z,100211.91
2023-04-24T06:47:42.411Z,100223.47
2023-04-24T06:50:11.022Z,100212.84
2023-04-24T06:52:40.041Z,100217.25
2023-04-24T06:55:09.346Z,100226.13
2023-04-24T06:57:36.945Z,100230.59
2023-04-24T07:00:06.029Z,100227.94
2023-04-24T07:02:33.670Z,100235.09
2023-04-24T07:05:02.203Z,100231.59
2023-04-24T07:07:29.798Z,100229.81
2023-04-24T07:09:59.365Z,100258.28
2023-04-24T07:12:27.297Z,100262.78
2023-04-24T07:14:55.286Z,100262.78
2023-04-24T07:17:22.968Z,100271.72
2023-04-24T07:19:51.027Z,100275.31
2023-04-24T07:22:19.138Z,100274.47
2023-04-24T07:24:46.853Z,100283.41
2023-04-24T07:27:16.351Z,100285.16
2023-04-24T07:29:45.971Z,100288.75
2023-04-24T07:32:13.856Z,100295.81
2023-04-24T07:34:41.663Z,100297.59
2023-04-24T07:37:09.242Z,100297.59
2023-04-24T07:39:36.805Z,100305.63
2023-04-24T07:42:05.295Z,100302.09
2023-04-24T07:44:34.279Z,100312.69
2023-04-24T07:47:01.862Z,100310.03
2023-04-24T07:49:29.820Z,100323.38
2023-04-24T07:51:57.401Z,100322.44
2023-04-24T07:54:25.057Z,100335.66
2023-04-24T07:56:52.722Z,100335.66
2023-04-24T07:59:20.338Z,100339.13
2023-04-24T08:01:49.245Z,100352.38
2023-04-24T08:04:17.285Z,100354.69
2023-04-24T08:06:45.089Z,100355.03
2023-04-24T08:09:12.942Z,100359.50
2023-04-24T08:11:40.686Z,100364.13
2023-04-24T08:14:08.756Z,100375.03
2023-04-24T08:16:36.949Z,100383.31
2023-04-24T08:19:06.746Z,100380.81
2023-04-24T08:21:35.238Z,100376.84
2023-04-24T08:24:06.494Z,100387.22
2023-04-24T08:26:34.286Z,100402.88
2023-04-24T08:29:02.177Z,100406.81
2023-04-24T08:31:30.191Z,100406.38
2023-04-24T08:33:57.931Z,100414.69
2023-04-24T08:36:33.173Z,100416.97
2023-04-24T08:39:11.705Z,100415.66
2023-04-24T08:41:40.311Z,100418.88
2023-04-24T08:44:10.614Z,100411.34
2023-04-24T08:46:39.286Z,100424.38
2023-04-24T08:49:07.691Z,100434.09
2023-04-24T08:51:39.119Z,100431.31
2023-04-24T08:54:08.241Z,100435.66
2023-04-24T08:56:40.272Z,100439.00
2023-04-24T08:59:08.139Z,100440.66
2023-04-24T09:01:37.335Z,100446.75
2023-04-24T09:04:06.356Z,100449.22
2023-04-24T09:06:36.395Z,100456.09
2023-04-24T09:09:05.116Z,100452.31
2023-04-24T09:11:33.989Z,100460.34
2023-04-24T09:14:03.041Z,100457.81
2023-04-24T09:16:31.046Z,100458.63
2023-04-24T09:18:58.861Z,100456.66
2023-04-24T09:21:33.459Z,100452.59
2023-04-24T09:24:03.914Z,100467.59
2023-04-24T09:26:35.766Z,100470.25
2023-04-24T09:29:04.185Z,100473.88
2023-04-24T09:31:33.385Z,100476.56
2023-04-24T09:34:05.735Z,100478.88
2023-04-24T09:36:38.179Z,100484.03
2023-04-24T09:39:09.421Z,100490.03
2023-04-24T09:41:37.878Z,100479.22
2023-04-24T09:44:15.095Z,100490.41
2023-04-24T09:46:44.068Z,100487.53
2023-04-24T09:49:14.734Z,100486.72
2023-04-24T09:51:42.844Z,100493.00
2023-04-24T09:54:21.837Z,100494.03
2023-04-24T09:56:51.767Z,100499.31
2023-04-24T09:59:21.338Z,100505.41
2023-04-24T10:01:51.877Z,100511.56
2023-04-24T10:04:22.888Z,100513.88
2023-04-24T10:06:51.649Z,100526.25
2023-04-24T10:09:22.210Z,100519.69
2023-04-24T10:11:51.584Z,100525.69
2023-04-24T10:14:21.615Z,100519.53
2023-04-24T10:16:50.064Z,100523.31
2023-04-24T10:19:21.301Z,100521.25
2023-04-24T10:21:49.395Z,100519.38
2023-04-24T10:24:18.292Z,100520.47
2023-04-24T10:26:49.235Z,100530.84
2023-04-24T10:29:20.666Z,100534.00
2023-04-24T10:31:48.837Z,100536.63
2023-04-24T10:34:19.073Z,100540.16
2023-04-24T10:36:51.128Z,100541.84
2023-04-24T10:39:19.579Z,100558.19
2023-04-24T10:41:50.909Z,100551.69
2023-04-24T10:44:18.789Z,100563.31
2023-04-24T10:46:48.554Z,100560.56
2023-04-24T10:49:16.394Z,100555.19
2023-04-24T10:51:49.633Z,100564.88
2023-04-24T10:54:28.497Z,100564.88
2023-04-24T10:57:29.743Z,100567.44
2023-04-24T11:00:16.265Z,100567.34
2023-04-24T11:02:50.358Z,100574.47
2023-04-24T11:05:18.891Z,100577.88
2023-04-24T11:08:17.863Z,100583.00
2023-04-24T11:10:49.506Z,100577.66
2023-04-24T11:13:19.325Z,100575.81
2023-04-24T11:15:46.897Z,100575.81
2023-04-24T11:18:16.416Z,100592.81
2023-04-24T11:20:45.268Z,100588.38
2023-04-24T11:23:15.076Z,100592.00
2023-04-24T11:25:43.785Z,100597.38
2023-04-24T11:28:18.343Z,100600.13
2023-04-24T11:30:45.980Z,100606.34
2023-04-24T11:33:13.913Z,100612.56
2023-04-24T11:35:42.666Z,100620.59
2023-04-24T11:38:23.965Z,100600.97
2023-04-24T11:40:53.745Z,100617.06
2023-04-24T11:43:23.693Z,100615.31
2023-04-24T11:45:51.738Z,100613.53
2023-04-24T11:48:22.568Z,100626.94
2023-04-24T11:50:50.895Z,100622.44
2023-04-24T11:53:21.459Z,100625.94
2023-04-24T11:55:49.242Z,100637.44
2023-04-24T11:58:17.069Z,100632.06
2023-04-24T12:00:46.623Z,100632.00
2023-04-24T12:03:14.963Z,100636.44
2023-04-24T12:05:43.195Z,100634.53
2023-04-24T12:08:10.950Z,100649.69
2023-04-24T12:10:38.779Z,100650.59
2023-04-24T12:13:06.532Z,100655.06
2023-04-24T12:15:34.337Z,100657.69
2023-04-24T12:18:03.533Z,100671.09
2023-04-24T12:20:32.739Z,100653.72
2023-04-24T12:23:02.291Z,100665.31
2023-04-24T12:25:31.698Z,100666.72
2023-04-24T12:28:12.533Z,100673.09
2023-04-24T12:30:43.842Z,100667.75
2023-04-24T12:33:13.173Z,100674.69
2023-04-24T12:35:42.757Z,100676.16
2023-04-24T12:38:13.445Z,100682.97
2023-04-24T12:40:42.367Z,100689.53
2023-04-24T12:43:16.448Z,100699.53
2023-04-24T12:45:44.242Z,100702.50
2023-04-24T12:48:14.976Z,100711.59
2023-04-24T12:50:45.488Z,100712.25
2023-04-24T12:53:13.999Z,100709.31
2023-04-24T12:55:41.786Z,100702.47
2023-04-24T12:58:09.887Z,100719.66
2023-04-24T13:00:38.375Z,100708.47
2023-04-24T13:03:07.134Z,100714.28
2023-04-24T13:05:37.014Z,100723.53
2023-04-24T13:08:05.905Z,100714.47
2023-04-24T13:10:33.587Z,100717.72
2023-04-24T13:13:01.564Z,100725.25
2023-04-24T13:15:29.427Z,100720.41
2023-04-24T13:17:57.112Z,100733.09
2023-04-24T13:20:24.839Z,100723.44
2023-04-24T13:22:53.863Z,100733.47
2023-04-24T13:25:23.746Z,100737.22
2023-04-24T13:27:51.871Z,100747.19
2023-04-24T13:30:19.856Z,100740.00
2023-04-24T13:32:48.410Z,100741.69
2023-04-24T13:35:16.470Z,100740.56
2023-04-24T13:37:44.592Z,100736.72
2023-04-24T13:40:14.162Z,100734.22
2023-04-24T13:42:42.613Z,100740.00
2023-04-24T13:45:23.818Z,100741.41
2023-04-24T13:47:53.057Z,100735.66
2023-04-24T13:50:21.497Z,100738.94
2023-04-24T13:52:49.568Z,100738.66
2023-04-24T13:55:19.371Z,100723.19
2023-04-24T13:57:48.336Z,100742.56
2023-04-24T14:00:18.018Z,100735.13
2023-04-24T14:02:46.248Z,100733.13
2023-04-24T14:05:16.753Z,100741.81
2023-04-24T14:07:44.403Z,100738.06
2023-04-24T14:10:12.914Z,100740.53
2023-04-24T14:12:41.996Z,100744.91
2023-04-24T14:15:11.332Z,100733.19
2023-04-24T14:17:39.518Z,100749.66
2023-04-24T14:20:10.420Z,100749.88
2023-04-24T14:22:38.965Z,100751.31
2023-04-24T14:25:08.165Z,100750.88
2023-04-24T14:27:37.101Z,100743.22
2023-04-24T14:30:09.580Z,100744.03
2023-04-24T14:32:37.903Z,100750.97
2023-04-24T14:35:07.250Z,100747.13
2023-04-24T14:37:37.154Z,100752.19
2023-04-24T14:42:39.379Z,100756.63
2023-04-24T14:45:10.489Z,100769.06
2023-04-24T14:47:39.838Z,100759.09
2023-04-24T14:50:10.328Z,100754.47
2023-04-24T14:52:38.780Z,100758.81
2023-04-24T14:55:07.992Z,100758.69
2023-04-24T14:57:37.198Z,100760.25
2023-04-24T15:00:07.142Z,100769.03
2023-04-24T15:02:38.746Z,100756.66
2023-04-24T15:05:08.575Z,100769.97
2023-04-24T15:07:37.511Z,100774.22
2023-04-24T15:10:06.636Z,100771.41
2023-04-24T15:12:34.485Z,100778.72
2023-04-24T15:15:02.929Z,100769.97
2023-04-24T15:17:30.922Z,100776.78
2023-04-24T15:20:00.897Z,100768.50
2023-04-24T15:22:29.047Z,100773.19
2023-04-24T15:24:57.287Z,100780.72
2023-04-24T15:27:25.529Z,100776.81
2023-04-24T15:29:54.524Z,100777.47
2023-04-24T15:32:22.919Z,100766.63
2023-04-24T15:35:01.019Z,100781.75
2023-04-24T15:37:37.465Z,100785.25
2023-04-24T15:40:08.545Z,100790.47
2023-04-24T15:42:36.598Z,100788.72
2023-04-24T15:45:05.681Z,100792.22
2023-04-24T15:47:34.622Z,100798.38
2023-04-24T15:50:02.968Z,100804.53
2023-04-24T15:52:30.940Z,100786.50
2023-04-24T15:55:00.649Z,100801.75
2023-04-24T15:57:29.178Z,100797.44
2023-04-24T15:59:57.495Z,100802.06
2023-04-24T16:02:25.423Z,100804.75
2023-04-24T16:04:54.922Z,100803.72
2023-04-24T16:07:24.062Z,100810.91
2023-04-24T16:09:52.335Z,100804.69
2023-04-24T16:12:21.545Z,100802.88
2023-04-24T16:14:50.021Z,100812.66
2023-04-24T16:17:18.223Z,100814.41
2023-04-24T16:19:46.175Z,100812.59
2023-04-24T16:22:14.030Z,100809.91
2023-04-24T16:24:41.692Z,100805.47
2023-04-24T16:27:11.087Z,100809.91
2023-04-24T16:29:40.819Z,100813.53
2023-04-24T16:32:09.207Z,100822.38
2023-04-24T16:34:37.461Z,100812.50
2023-04-24T16:37:07.257Z,100825.88
2023-04-24T16:39:35.350Z,100824.97
2023-04-24T16:42:03.919Z,100830.34
2023-04-24T16:44:31.859Z,100824.00
2023-04-24T16:47:01.559Z,100829.38
2023-04-24T16:49:32.143Z,100826.66
2023-04-24T16:52:00.589Z,100835.56
2023-04-24T16:54:29.837Z,100833.75
2023-04-24T16:56:58.286Z,100833.75
2023-04-24T16:59:26.059Z,100834.63
2023-04-24T17:01:54.336Z,100831.94
2023-04-24T17:04:24.201Z,100831.00
2023-04-24T17:06:52.332Z,100824.78
2023-04-24T17:09:21.222Z,100833.75
2023-04-24T17:11:48.987Z,100831.94
2023-04-24T17:14:17.462Z,100832.81
2023-04-24T17:16:46.239Z,100834.63
2023-04-24T17:19:14.238Z,100830.19
2023-04-24T17:21:44.137Z,100839.13
2023-04-24T17:24:12.108Z,100841.84
2023-04-24T17:26:40.342Z,100848.09
2023-04-24T17:29:08.670Z,100846.38
2023-04-24T17:31:36.501Z,100855.28
2023-04-24T17:34:04.246Z,100857.94
2023-04-24T17:36:32.489Z,100857.00
2023-04-24T17:39:02.148Z,100861.28
2023-04-24T17:41:30.465Z,100854.78
2023-04-24T17:43:59.138Z,100850.16
2023-04-24T17:46:27.579Z,100855.31
2023-04-24T17:48:56.011Z,100856.84
2023-04-24T17:51:23.640Z,100851.47
2023-04-24T17:53:52.188Z,100847.81
2023-04-24T17:56:21.940Z,100862.00
2023-04-24T17:58:50.080Z,100868.19
2023-04-24T18:01:18.265Z,100869.94
2023-04-24T18:03:46.238Z,100864.50
2023-04-24T18:06:17.344Z,100871.59
2023-04-24T18:08:45.297Z,100876.03
2023-04-24T18:11:13.336Z,100876.91
2023-04-24T18:13:42.531Z,100879.53
2023-04-24T18:16:10.327Z,100873.25
2023-04-24T18:18:38.509Z,100876.81
2023-04-24T18:21:06.510Z,100876.72
2023-04-24T18:23:35.199Z,100881.16
2023-04-24T18:26:03.145Z,100877.41
2023-04-24T18:28:34.508Z,100880.97
2023-04-24T18:31:03.879Z,100886.25
2023-04-24T18:33:32.074Z,100874.66
2023-04-24T18:36:00.564Z,100890.69
2023-04-24T18:38:28.908Z,100898.72
2023-04-24T18:40:57.210Z,100901.41
2023-04-24T18:43:24.915Z,100900.47
2023-04-24T18:45:52.681Z,100904.91
2023-04-24T18:48:22.684Z,100911.09
2023-04-24T18:50:50.527Z,100906.66
2023-04-24T18:53:18.267Z,100911.94
2023-04-24T18:55:45.897Z,100910.16
2023-04-24T18:58:13.672Z,100918.22
2023-04-24T19:00:41.436Z,100909.19
2023-04-24T19:03:09.823Z,100913.69
2023-04-24T19:05:39.159Z,100918.22
2023-04-24T19:08:06.970Z,100939.69
2023-04-24T19:10:36.036Z,100929.78
2023-04-24T19:13:03.867Z,100936.03
2023-04-24T19:15:33.919Z,100946.75
2023-04-24T19:18:01.605Z,100944.97
2023-04-24T19:20:29.593Z,100948.50
2023-04-24T19:22:59.192Z,100956.50
2023-04-24T19:25:27.320Z,100962.75
2023-04-24T19:27:54.982Z,100966.34
2023-04-24T19:30:22.839Z,100969.97
2023-04-24T19:32:50.973Z,100971.81
2023-04-24T19:35:19.138Z,100971.81
2023-04-24T19:37:46.872Z,100981.63
2023-04-24T19:40:15.858Z,100986.16
2023-04-24T19:42:44.766Z,100995.94
2023-04-24T19:45:13.864Z,101005.75
2023-04-24T19:47:42.250Z,101003.94
2023-04-24T19:50:10.681Z,100996.69
2023-04-24T19:52:38.620Z,101014.41
2023-04-24T19:55:08.268Z,101006.41
2023-04-24T19:57:37.471Z,101016.28
2023-04-24T20:00:06.146Z,101020.84
2023-04-24T20:02:33.882Z,101020.84
2023-04-24T20:05:02.307Z,101028.91
2023-04-24T20:07:30.457Z,101027.16
2023-04-24T20:09:58.534Z,101031.69
2023-04-24T20:12:26.951Z,101030.75
2023-04-24T20:14:55.994Z,101028.91
2023-04-24T20:17:23.734Z,101029.72
2023-04-24T20:19:51.681Z,101036.81
2023-04-24T20:22:19.409Z,101034.16
2023-04-24T20:24:47.433Z,101035.88
2023-04-24T20:27:15.215Z,101035.88
2023-04-24T20:29:43.242Z,101046.59
2023-04-24T20:32:12.432Z,101042.97
2023-04-24T20:34:40.216Z,101037.69
2023-04-24T20:37:08.309Z,101041.22
2023-04-24T20:39:36.926Z,101050.19
2023-04-24T20:42:05.828Z,101051.97
2023-04-24T20:44:34.040Z,101051.97
2023-04-24T20:47:01.691Z,101061.00
2023-04-24T20:49:30.959Z,101053.88
2023-04-24T20:51:59.543Z,101055.63
2023-04-24T20:54:27.440Z,101052.84
2023-04-24T20:56:57.433Z,101061.72
2023-04-24T20:59:25.923Z,101064.44
2023-04-24T21:01:54.380Z,101062.59
2023-04-24T21:04:22.477Z,101055.41
2023-04-24T21:06:52.125Z,101062.59
2023-04-24T21:09:19.960Z,101058.09
2023-04-24T21:11:47.594Z,101058.97
2023-04-24T21:14:15.573Z,101062.50
2023-04-24T21:16:44.351Z,101066.09
2023-04-24T21:19:12.036Z,101073.44
2023-04-24T21:21:39.835Z,101070.81
2023-04-24T21:24:09.118Z,101068.16
2023-04-24T21:26:37.201Z,101068.22
2023-04-24T21:29:05.059Z,101073.59
2023-04-24T21:31:32.840Z,101069.97
2023-04-24T21:34:00.962Z,101064.59
2023-04-24T21:36:29.651Z,101067.28
2023-04-24T21:38:58.317Z,101064.59
2023-04-24T21:41:27.507Z,101063.72
2023-04-24T21:43:55.616Z,101054.78
2023-04-24T21:46:23.536Z,101066.41
2023-04-24T21:48:51.242Z,101071.75
2023-04-24T21:51:20.448Z,101067.28
2023-04-24T21:53:48.514Z,101070.91
2023-04-24T21:56:16.483Z,101061.97
2023-04-24T21:58:46.826Z,101070.91
2023-04-24T22:01:15.612Z,101069.16
2023-04-24T22:03:43.419Z,101070.91
2023-04-24T22:06:11.416Z,101069.78
2023-04-24T22:08:39.381Z,101068.25
2023-04-24T22:11:13.544Z,101072.13
2023-04-24T22:13:49.540Z,101071.91
2023-04-24T22:16:18.101Z,101081.81
2023-04-24T22:18:47.750Z,101086.31
2023-04-24T22:21:15.859Z,101076.84
2023-04-24T22:23:43.444Z,101087.16
2023-04-24T22:26:11.095Z,101083.94
2023-04-24T22:28:38.758Z,101087.03
2023-04-24T22:31:07.836Z,101088.22
2023-04-24T22:33:35.535Z,101085.94
2023-04-24T22:36:03.257Z,101089.81
2023-04-24T22:38:31.040Z,101091.00
2023-04-24T22:40:58.776Z,101090.44
2023-04-24T22:43:28.159Z,101099.66
2023-04-24T22:45:56.311Z,101100.84
2023-04-24T22:48:25.886Z,101093.91
2023-04-24T22:50:53.503Z,101087.91
2023-04-24T22:53:21.351Z,101088.94
2023-04-24T22:55:48.943Z,101091.88
2023-04-24T22:58:16.755Z,101084.91
2023-04-24T23:00:44.717Z,101090.41
2023-04-24T23:03:12.614Z,101092.28
2023-04-24T23:05:41.916Z,101083.53
2023-04-24T23:08:09.542Z,101087.25
2023-04-24T23:10:38.092Z,101091.00
2023-04-24T23:13:05.841Z,101084.88
2023-04-24T23:15:34.597Z,101083.22
2023-04-24T23:18:02.385Z,101096.75
2023-04-24T23:20:30.051Z,101094.16
2023-04-24T23:22:59.001Z,101096.97
2023-04-24T23:25:26.629Z,101099.78
2023-04-24T23:27:54.265Z,101103.41
2023-04-24T23:30:21.907Z,101103.53
2023-04-24T23:32:49.659Z,101101.84
2023-04-24T23:35:17.449Z,101107.25
2023-04-24T23:37:45.630Z,101110.91
2023-04-24T23:40:14.774Z,101107.44
2023-04-24T23:42:42.368Z,101099.44
2023-04-24T23:45:11.615Z,101104.00
2023-04-24T23:47:39.331Z,101098.72
2023-04-24T23:50:07.713Z,101105.06
2023-04-24T23:52:36.047Z,101106.06
2023-04-24T23:55:04.560Z,101108.78
2023-04-24T23:57:33.527Z,101110.66
